Time;durP1;ratioP1;P1;durP2;ratioP2;P2;SDS_P1;SDS_P2;PMS_P1;PMS_P2;Temp;Humidity;BMP_temperature;BMP_pressure;BME280_temperature;BME280_humidity;BME280_pressure;Samples;Min_cycle;Max_cycle;Signal;HPM_P1;HPM_P2
2023/08/03 00:01:29;;;;;;;5.45;1.80;;;17.30;99.90;;;;;;5056800;28;20063;-75
2023/08/03 00:03:57;;;;;;;7.60;1.67;;;17.30;99.90;;;;;;5056617;28;20103;-79
2023/08/03 00:06:23;;;;;;;5.65;1.73;;;17.30;99.90;;;;;;5056828;28;20013;-76
2023/08/03 00:08:48;;;;;;;14.85;1.77;;;17.10;99.90;;;;;;5056744;28;20044;-77
2023/08/03 00:11:14;;;;;;;10.73;1.85;;;17.10;99.90;;;;;;5056789;28;20025;-73
2023/08/03 00:13:39;;;;;;;6.10;1.75;;;17.10;99.90;;;;;;5056696;28;20346;-78
2023/08/03 00:16:05;;;;;;;5.30;1.60;;;17.10;99.90;;;;;;5056583;28;20021;-75
2023/08/03 00:18:30;;;;;;;6.50;1.55;;;17.00;99.90;;;;;;5057146;28;20021;-76
2023/08/03 00:20:56;;;;;;;9.05;1.83;;;17.00;99.90;;;;;;5056168;28;20036;-75
2023/08/03 00:23:22;;;;;;;6.90;1.65;;;16.90;99.90;;;;;;5056567;28;20021;-74
2023/08/03 00:25:47;;;;;;;7.00;1.67;;;16.90;99.90;;;;;;5056406;28;20028;-77
2023/08/03 00:28:13;;;;;;;7.20;1.90;;;16.90;99.90;;;;;;5056416;28;20028;-78
2023/08/03 00:30:38;;;;;;;11.35;2.60;;;16.90;99.90;;;;;;5056289;28;20123;-78
2023/08/03 00:33:04;;;;;;;6.63;1.70;;;16.90;99.90;;;;;;5056061;28;20457;-76
2023/08/03 00:35:30;;;;;;;8.98;1.88;;;16.90;99.90;;;;;;5056088;28;20025;-75
2023/08/03 00:37:55;;;;;;;5.72;1.60;;;16.90;99.90;;;;;;5056681;28;20060;-76
2023/08/03 00:40:21;;;;;;;5.80;1.65;;;16.80;99.90;;;;;;5056149;28;20021;-76
2023/08/03 00:42:47;;;;;;;9.18;1.98;;;16.90;99.90;;;;;;5055405;28;20101;-76
2023/08/03 00:45:12;;;;;;;9.55;2.00;;;16.90;99.90;;;;;;5056961;28;20048;-76
2023/08/03 00:47:41;;;;;;;5.35;1.48;;;16.90;99.90;;;;;;5056218;28;20078;-75
2023/08/03 00:50:07;;;;;;;10.25;1.67;;;16.90;99.90;;;;;;5056004;28;20044;-76
2023/08/03 00:52:37;;;;;;;8.93;1.83;;;17.00;99.90;;;;;;5055928;28;20029;-76
2023/08/03 00:55:03;;;;;;;13.43;2.08;;;16.90;99.90;;;;;;5056250;28;20017;-75
2023/08/03 00:57:29;;;;;;;11.68;1.77;;;16.90;99.90;;;;;;5056126;28;20021;-73
2023/08/03 00:59:55;;;;;;;10.40;2.03;;;16.90;99.90;;;;;;5054443;28;20021;-77
2023/08/03 01:02:21;;;;;;;9.23;1.90;;;16.80;99.90;;;;;;5056574;28;20465;-77
2023/08/03 01:04:46;;;;;;;7.35;2.00;;;16.90;99.90;;;;;;5055793;28;20021;-77
2023/08/03 01:07:12;;;;;;;18.70;2.63;;;16.90;99.90;;;;;;5055725;28;20043;-73
2023/08/03 01:09:38;;;;;;;12.00;2.22;;;16.90;99.90;;;;;;5054332;28;20025;-76
2023/08/03 01:12:04;;;;;;;13.02;2.22;;;16.90;99.90;;;;;;5055022;28;20028;-77
2023/08/03 01:14:30;;;;;;;17.77;2.30;;;16.90;99.90;;;;;;5055843;28;20020;-74
2023/08/03 01:16:55;;;;;;;10.82;2.38;;;16.80;99.90;;;;;;5055236;28;20013;-75
2023/08/03 01:19:22;;;;;;;7.05;2.05;;;16.80;99.90;;;;;;5055080;28;20027;-74
2023/08/03 01:21:49;;;;;;;8.68;2.17;;;16.80;99.90;;;;;;5055392;28;20049;-74
2023/08/03 01:24:14;;;;;;;6.70;2.00;;;16.70;99.90;;;;;;5055445;28;20020;-73
2023/08/03 01:26:42;;;;;;;16.13;2.78;;;16.70;99.90;;;;;;5055383;28;20108;-75
2023/08/03 01:29:07;;;;;;;10.18;2.08;;;16.60;99.90;;;;;;5055326;28;20021;-75
2023/08/03 01:31:34;;;;;;;11.63;2.30;;;16.60;99.90;;;;;;5055226;28;20354;-75
2023/08/03 01:33:59;;;;;;;11.45;2.28;;;16.50;99.90;;;;;;5055492;28;20029;-76
2023/08/03 01:36:25;;;;;;;7.47;1.90;;;16.50;99.90;;;;;;5055667;28;20024;-76
2023/08/03 01:38:55;;;;;;;9.70;1.98;;;16.60;99.90;;;;;;5055104;28;20027;-75
2023/08/03 01:41:22;;;;;;;10.73;1.73;;;16.60;99.90;;;;;;5055143;28;20108;-77
2023/08/03 01:44:22;;;;;;;10.30;1.95;;;16.70;99.90;;;;;;5055239;28;20028;-74
2023/08/03 01:46:55;;;;;;;27.98;3.25;;;16.80;99.90;;;;;;5055011;28;20043;-76
2023/08/03 01:49:22;;;;;;;8.75;2.15;;;16.90;99.90;;;;;;5055281;28;20048;-76
2023/08/03 01:51:47;;;;;;;8.00;1.60;;;17.00;99.90;;;;;;5054689;28;20064;-78
2023/08/03 01:54:13;;;;;;;10.85;1.95;;;17.00;99.90;;;;;;5054767;28;20064;-76
2023/08/03 01:56:39;;;;;;;9.57;1.98;;;17.00;99.90;;;;;;5054483;28;20338;-75
2023/08/03 01:59:05;;;;;;;14.15;2.20;;;16.90;99.90;;;;;;5054725;28;20031;-74
2023/08/03 02:01:31;;;;;;;12.98;2.10;;;17.00;99.90;;;;;;5054696;28;20023;-75
2023/08/03 02:03:56;;;;;;;9.88;1.85;;;16.80;99.90;;;;;;5054540;28;20107;-81
2023/08/03 02:06:22;;;;;;;18.02;2.53;;;16.80;99.90;;;;;;5054590;28;20100;-78
2023/08/03 02:08:47;;;;;;;12.48;1.90;;;17.10;99.90;;;;;;5053974;28;20071;-81
2023/08/03 02:11:14;;;;;;;11.15;1.60;;;17.20;99.90;;;;;;5054413;28;20368;-76
2023/08/03 02:13:39;;;;;;;9.57;1.35;;;17.10;99.90;;;;;;5054682;28;20048;-80
2023/08/03 02:16:10;;;;;;;6.75;1.42;;;17.10;99.90;;;;;;5054410;28;20040;-77
2023/08/03 02:18:37;;;;;;;7.88;1.40;;;17.20;99.90;;;;;;5054217;28;20036;-73
2023/08/03 02:21:03;;;;;;;5.47;1.58;;;17.10;99.90;;;;;;5054332;28;20119;-79
2023/08/03 02:23:29;;;;;;;11.10;1.60;;;17.20;99.90;;;;;;5053153;28;20025;-75
2023/08/03 02:25:55;;;;;;;8.52;1.40;;;17.00;99.90;;;;;;5054314;28;20087;-78
2023/08/03 02:28:21;;;;;;;5.53;1.45;;;17.00;99.90;;;;;;5053692;28;20111;-75
2023/08/03 02:30:46;;;;;;;4.28;1.25;;;17.00;99.90;;;;;;5054055;28;20025;-73
2023/08/03 02:33:12;;;;;;;7.75;1.42;;;16.90;99.90;;;;;;5054986;28;20029;-77
2023/08/03 02:35:39;;;;;;;10.65;1.50;;;16.80;99.90;;;;;;5053036;28;20021;-80
2023/08/03 02:38:08;;;;;;;10.77;1.98;;;17.00;99.90;;;;;;5054065;28;20056;-74
2023/08/03 02:40:34;;;;;;;12.10;1.50;;;16.80;99.90;;;;;;5054050;28;20025;-76
2023/08/03 02:43:00;;;;;;;8.98;1.77;;;16.80;99.90;;;;;;5054015;28;20468;-80
2023/08/03 02:45:25;;;;;;;10.02;1.80;;;16.60;99.90;;;;;;5054203;28;20029;-73
2023/08/03 02:47:51;;;;;;;12.65;1.60;;;16.60;99.90;;;;;;5053595;28;20017;-75
2023/08/03 02:50:17;;;;;;;9.55;1.75;;;16.60;99.90;;;;;;5054396;28;20083;-75
2023/08/03 02:52:44;;;;;;;10.40;1.70;;;16.60;99.90;;;;;;5053391;28;20045;-74
2023/08/03 02:55:09;;;;;;;13.68;1.60;;;16.60;99.90;;;;;;5053799;28;20075;-75
2023/08/03 02:57:35;;;;;;;9.88;2.17;;;16.60;99.90;;;;;;5053777;28;20028;-76
2023/08/03 03:00:00;;;;;;;9.30;1.55;;;16.60;99.90;;;;;;5053671;28;20017;-76
2023/08/03 03:02:26;;;;;;;12.68;2.10;;;16.60;99.90;;;;;;5053881;28;20017;-77
2023/08/03 03:04:52;;;;;;;7.25;1.45;;;16.50;99.90;;;;;;5053363;28;20036;-76
2023/08/03 03:07:17;;;;;;;13.27;1.33;;;16.40;99.90;;;;;;5053882;28;20028;-75
2023/08/03 03:09:43;;;;;;;11.20;1.42;;;16.50;99.90;;;;;;5053319;28;20025;-74
2023/08/03 03:12:09;;;;;;;8.93;1.50;;;16.40;99.90;;;;;;5053532;28;20060;-75
2023/08/03 03:14:37;;;;;;;8.32;1.23;;;16.50;99.90;;;;;;5052253;28;20025;-76
2023/08/03 03:17:03;;;;;;;10.32;1.60;;;16.50;99.90;;;;;;5053215;28;20021;-76
2023/08/03 03:19:29;;;;;;;7.45;1.33;;;16.60;99.90;;;;;;5053092;28;20028;-74
2023/08/03 03:21:55;;;;;;;5.05;1.30;;;16.60;99.90;;;;;;5053666;28;20349;-74
2023/08/03 03:24:21;;;;;;;6.07;1.35;;;16.50;99.90;;;;;;5053134;28;20025;-74
2023/08/03 03:26:47;;;;;;;9.77;1.40;;;16.60;99.90;;;;;;5053620;28;20350;-76
2023/08/03 03:29:12;;;;;;;13.20;1.60;;;16.60;99.90;;;;;;5053389;28;20387;-76
2023/08/03 03:31:38;;;;;;;10.52;1.98;;;16.60;99.90;;;;;;5053390;28;20078;-76
2023/08/03 03:34:04;;;;;;;8.35;1.30;;;16.60;99.90;;;;;;5053378;28;20032;-76
2023/08/03 03:36:29;;;;;;;7.65;1.70;;;16.50;99.90;;;;;;5057604;28;20047;-73
2023/08/03 03:38:55;;;;;;;7.28;1.35;;;16.50;99.90;;;;;;5057378;28;20445;-74
2023/08/03 03:41:21;;;;;;;13.07;2.08;;;16.50;99.90;;;;;;5056977;28;20064;-75
2023/08/03 03:43:46;;;;;;;12.75;1.50;;;16.50;99.90;;;;;;5058039;28;20021;-74
2023/08/03 03:46:12;;;;;;;9.60;1.35;;;16.30;99.90;;;;;;5057234;28;20071;-74
2023/08/03 03:48:37;;;;;;;9.90;1.35;;;16.30;99.90;;;;;;5056768;28;20049;-75
2023/08/03 03:51:03;;;;;;;7.88;1.58;;;16.40;99.90;;;;;;5057094;28;20041;-73
2023/08/03 03:53:29;;;;;;;9.43;1.55;;;16.30;99.90;;;;;;5057354;28;20032;-74
2023/08/03 03:55:54;;;;;;;6.60;1.20;;;16.20;99.90;;;;;;5057602;28;20110;-73
2023/08/03 03:58:20;;;;;;;10.25;1.33;;;16.30;99.90;;;;;;5057051;28;20017;-73
2023/08/03 04:00:46;;;;;;;12.73;1.35;;;16.40;99.90;;;;;;5056145;28;20021;-72
2023/08/03 04:03:11;;;;;;;7.38;1.40;;;16.40;99.90;;;;;;5057392;28;20029;-71
2023/08/03 04:05:38;;;;;;;10.20;1.30;;;16.40;99.90;;;;;;5056812;28;20100;-71
2023/08/03 04:08:04;;;;;;;9.57;1.48;;;16.50;99.90;;;;;;5056923;28;20028;-71
2023/08/03 04:10:31;;;;;;;6.55;1.38;;;16.50;99.90;;;;;;5056661;28;20025;-70
2023/08/03 04:12:57;;;;;;;9.05;1.20;;;16.40;99.90;;;;;;5055993;28;20349;-71
2023/08/03 04:15:22;;;;;;;9.98;2.17;;;16.50;99.90;;;;;;5056470;28;20017;-71
2023/08/03 04:17:48;;;;;;;8.40;2.17;;;16.30;99.90;;;;;;5056379;28;20104;-71
2023/08/03 04:20:15;;;;;;;10.18;1.80;;;16.30;99.90;;;;;;5056850;28;20330;-72
2023/08/03 04:22:41;;;;;;;7.32;1.40;;;16.30;99.90;;;;;;5056507;28;20028;-71
2023/08/03 04:25:07;;;;;;;4.97;1.10;;;16.30;99.90;;;;;;5057081;28;20025;-75
2023/08/03 04:27:33;;;;;;;8.93;1.23;;;16.30;99.90;;;;;;5056863;28;20060;-72
2023/08/03 04:29:58;;;;;;;9.98;1.95;;;16.20;99.90;;;;;;5056218;28;20056;-71
2023/08/03 04:32:24;;;;;;;7.57;1.25;;;16.20;99.90;;;;;;5055995;28;20455;-71
2023/08/03 04:34:49;;;;;;;13.68;1.48;;;16.30;99.90;;;;;;5058418;28;20021;-72
2023/08/03 04:37:15;;;;;;;8.57;1.75;;;16.30;99.90;;;;;;5058085;28;20465;-71
2023/08/03 04:39:41;;;;;;;7.53;1.17;;;16.40;99.90;;;;;;5057274;28;20025;-74
2023/08/03 04:42:06;;;;;;;7.97;1.23;;;16.50;99.90;;;;;;5056667;28;20025;-73
2023/08/03 04:44:32;;;;;;;12.98;1.75;;;16.40;99.90;;;;;;5057204;28;20107;-75
2023/08/03 04:46:58;;;;;;;6.95;1.00;;;16.30;99.90;;;;;;5055221;28;20025;-71
2023/08/03 04:49:25;;;;;;;5.03;1.10;;;16.50;99.90;;;;;;5055601;28;20045;-72
2023/08/03 04:51:51;;;;;;;6.95;1.27;;;16.50;99.90;;;;;;5055676;28;20573;-73
2023/08/03 04:54:17;;;;;;;9.73;1.48;;;16.60;99.90;;;;;;5056009;28;20024;-76
2023/08/03 04:56:43;;;;;;;5.78;0.82;;;16.50;99.90;;;;;;5055967;28;20108;-75
2023/08/03 04:59:08;;;;;;;4.30;1.00;;;16.70;99.90;;;;;;5055969;28;20372;-74
2023/08/03 05:01:34;;;;;;;4.68;1.02;;;16.70;99.90;;;;;;5055694;28;20029;-76
2023/08/03 05:04:00;;;;;;;4.60;0.65;;;16.80;99.90;;;;;;5055365;28;20349;-77
2023/08/03 05:06:27;;;;;;;7.47;0.80;;;16.80;99.90;;;;;;5055738;28;20078;-78
2023/08/03 05:08:52;;;;;;;4.88;0.82;;;16.80;99.90;;;;;;5054474;28;20448;-75
2023/08/03 05:11:18;;;;;;;3.38;0.75;;;16.90;99.90;;;;;;5055654;28;20052;-74
2023/08/03 05:13:43;;;;;;;6.95;0.80;;;16.90;99.90;;;;;;5055634;28;20058;-76
2023/08/03 05:16:09;;;;;;;4.50;0.70;;;16.80;99.90;;;;;;5055855;28;20070;-73
2023/08/03 05:18:35;;;;;;;4.60;0.50;;;16.80;99.90;;;;;;5055254;28;20028;-76
2023/08/03 05:21:00;;;;;;;4.18;0.50;;;16.80;99.90;;;;;;5055592;28;20041;-77
2023/08/03 05:23:26;;;;;;;4.50;0.68;;;16.80;99.90;;;;;;5055442;28;20425;-73
2023/08/03 05:25:58;;;;;;;2.72;0.50;;;16.80;99.90;;;;;;5055478;28;20104;-74
2023/08/03 05:28:25;;;;;;;4.03;0.57;;;16.90;99.90;;;;;;5055533;28;20087;-73
2023/08/03 05:30:51;;;;;;;5.82;0.60;;;16.90;99.90;;;;;;5055208;28;20113;-78
2023/08/03 05:33:17;;;;;;;4.03;0.50;;;16.80;99.90;;;;;;5055429;28;20100;-66
2023/08/03 05:35:44;;;;;;;2.65;0.70;;;16.90;99.90;;;;;;5055137;28;20017;-68
2023/08/03 05:38:10;;;;;;;2.45;0.50;;;16.90;99.90;;;;;;5054968;28;20071;-70
2023/08/03 05:40:39;;;;;;;2.33;0.57;;;17.00;99.90;;;;;;5055015;28;20064;-73
2023/08/03 05:43:10;;;;;;;2.30;0.40;;;17.00;99.90;;;;;;5054938;28;20021;-72
2023/08/03 05:45:48;;;;;;;7.45;0.52;;;17.10;99.90;;;;;;5054839;28;20457;-75
2023/08/03 05:48:15;;;;;;;3.78;0.45;;;17.00;99.90;;;;;;5054658;28;20241;-70
2023/08/03 05:50:45;;;;;;;7.78;0.70;;;16.90;99.90;;;;;;5053506;28;20041;-68
2023/08/03 05:53:11;;;;;;;4.50;0.60;;;17.00;99.90;;;;;;5055528;28;20028;-69
2023/08/03 05:55:39;;;;;;;1.52;0.50;;;17.00;99.90;;;;;;5053486;28;20460;-73
2023/08/03 05:58:05;;;;;;;4.80;0.60;;;17.10;99.90;;;;;;5054503;28;20021;-74
2023/08/03 06:00:31;;;;;;;7.20;0.50;;;17.20;99.90;;;;;;5054955;28;20444;-77
2023/08/03 06:02:58;;;;;;;2.72;0.40;;;17.10;99.90;;;;;;5055147;28;20033;-73
2023/08/03 06:05:43;;;;;;;6.82;0.57;;;17.00;99.90;;;;;;5054405;28;20449;-72
2023/08/03 06:08:14;;;;;;;5.70;1.17;;;16.90;99.90;;;;;;5054760;28;20021;-76
2023/08/03 06:10:40;;;;;;;3.00;0.80;;;16.80;99.90;;;;;;5054661;28;20109;-74
2023/08/03 06:13:10;;;;;;;5.82;0.60;;;16.80;99.90;;;;;;5054384;28;20056;-73
2023/08/03 06:15:35;;;;;;;1.98;0.60;;;16.80;99.90;;;;;;5053073;28;20028;-74
2023/08/03 06:18:04;;;;;;;4.22;0.50;;;16.80;99.90;;;;;;5052773;28;20025;-72
2023/08/03 06:20:30;;;;;;;3.63;0.68;;;16.80;99.90;;;;;;5054598;28;20104;-77
2023/08/03 06:22:55;;;;;;;4.93;0.70;;;16.80;99.90;;;;;;5054062;28;20060;-69
2023/08/03 06:25:22;;;;;;;4.93;0.70;;;16.80;99.90;;;;;;5054271;28;20042;-75
2023/08/03 06:27:48;;;;;;;2.60;0.50;;;16.90;99.90;;;;;;5054119;28;20032;-73
2023/08/03 06:30:14;;;;;;;7.03;0.75;;;16.80;99.90;;;;;;5053799;28;20460;-76
2023/08/03 06:32:40;;;;;;;3.45;0.60;;;16.90;99.90;;;;;;5054057;28;20020;-76
2023/08/03 06:35:36;;;;;;;6.75;0.80;;;16.90;99.90;;;;;;5054040;28;20382;-75
2023/08/03 06:38:02;;;;;;;6.97;0.60;;;16.80;99.90;;;;;;5054280;28;20017;-75
2023/08/03 06:40:28;;;;;;;3.13;0.70;;;16.90;99.90;;;;;;5053899;28;20039;-77
2023/08/03 06:42:54;;;;;;;4.38;0.70;;;16.90;99.90;;;;;;5054326;28;20028;-78
2023/08/03 06:45:20;;;;;;;3.70;0.77;;;17.00;99.90;;;;;;5053268;28;20024;-76
2023/08/03 06:47:45;;;;;;;5.35;0.73;;;17.00;99.90;;;;;;5053395;28;20049;-75
2023/08/03 06:50:11;;;;;;;4.45;0.98;;;17.10;99.90;;;;;;5054163;28;20041;-76
2023/08/03 06:52:37;;;;;;;10.10;1.00;;;17.30;99.90;;;;;;5053959;28;20421;-72
2023/08/03 06:55:02;;;;;;;4.93;0.50;;;17.50;99.90;;;;;;5053891;28;20353;-71
2023/08/03 06:57:28;;;;;;;7.22;0.68;;;17.40;99.90;;;;;;5053067;28;20079;-71
2023/08/03 06:59:55;;;;;;;3.97;0.82;;;17.30;99.90;;;;;;5053725;28;20060;-75
2023/08/03 07:02:21;;;;;;;4.90;0.85;;;17.30;99.90;;;;;;5053640;28;20032;-74
2023/08/03 07:04:47;;;;;;;5.00;1.00;;;17.40;99.90;;;;;;5054316;28;20017;-74
2023/08/03 07:07:14;;;;;;;4.70;0.98;;;17.50;99.90;;;;;;5053434;28;20017;-68
2023/08/03 07:09:40;;;;;;;7.72;0.90;;;17.60;99.90;;;;;;5053158;28;20417;-74
2023/08/03 07:12:09;;;;;;;2.50;0.60;;;17.80;99.90;;;;;;5053090;28;20032;-78
2023/08/03 07:14:35;;;;;;;6.63;0.90;;;18.00;99.90;;;;;;5053463;28;20346;-75
2023/08/03 07:17:01;;;;;;;3.15;0.90;;;18.10;99.90;;;;;;5053414;28;20025;-77
2023/08/03 07:19:26;;;;;;;7.43;0.95;;;18.10;99.90;;;;;;5052936;28;20021;-77
2023/08/03 07:21:52;;;;;;;3.88;0.90;;;18.20;99.90;;;;;;5053462;28;20037;-72
2023/08/03 07:24:17;;;;;;;4.63;0.65;;;18.20;99.90;;;;;;5053340;28;20346;-69
2023/08/03 07:26:43;;;;;;;3.90;0.73;;;18.30;99.90;;;;;;5053259;28;20232;-70
2023/08/03 07:29:09;;;;;;;4.68;0.95;;;18.10;99.90;;;;;;5053342;28;20045;-71
2023/08/03 07:31:34;;;;;;;6.85;0.90;;;18.10;99.90;;;;;;5053709;28;20027;-78
2023/08/03 07:34:00;;;;;;;3.13;0.80;;;18.10;99.90;;;;;;5053218;28;20031;-80
2023/08/03 07:36:25;;;;;;;5.45;0.90;;;18.40;99.90;;;;;;5053232;28;20025;-76
2023/08/03 07:38:52;;;;;;;3.22;0.50;;;18.50;99.90;;;;;;5053511;28;20083;-73
2023/08/03 07:41:18;;;;;;;8.00;0.85;;;18.40;99.90;;;;;;5053083;28;20033;-71
2023/08/03 07:43:44;;;;;;;2.97;0.82;;;18.20;99.90;;;;;;5053114;28;20021;-68
2023/08/03 07:46:09;;;;;;;3.72;0.77;;;18.20;99.90;;;;;;5052922;28;20029;-72
2023/08/03 07:48:35;;;;;;;8.00;0.73;;;18.10;99.90;;;;;;5051632;28;20048;-74
2023/08/03 07:51:14;;;;;;;7.68;1.05;;;18.20;99.90;;;;;;5052740;28;20044;-73
2023/08/03 07:53:40;;;;;;;3.88;0.70;;;18.00;99.90;;;;;;5053742;28;20314;-79
2023/08/03 07:56:21;;;;;;;5.57;0.70;;;18.10;99.90;;;;;;5053009;28;20028;-78
2023/08/03 07:58:49;;;;;;;3.47;0.80;;;18.30;99.90;;;;;;5053070;28;20025;-76
2023/08/03 08:01:15;;;;;;;3.85;0.73;;;18.40;99.90;;;;;;5053363;28;20033;-78
2023/08/03 08:03:41;;;;;;;7.88;0.60;;;18.50;99.90;;;;;;5051645;28;20025;-78
2023/08/03 08:06:16;;;;;;;3.05;0.50;;;18.60;99.90;;;;;;5053791;28;20346;-75
2023/08/03 08:08:42;;;;;;;5.25;0.90;;;18.80;99.90;;;;;;5052937;28;20025;-79
2023/08/03 08:11:09;;;;;;;2.55;0.75;;;18.60;99.90;;;;;;5051788;28;20029;-80
2023/08/03 08:13:34;;;;;;;9.25;0.75;;;18.90;99.90;;;;;;5052879;28;20037;-74
2023/08/03 08:16:02;;;;;;;6.22;0.50;;;18.90;99.90;;;;;;5053387;28;20025;-75
2023/08/03 08:18:29;;;;;;;3.17;0.60;;;18.80;99.90;;;;;;5052831;28;20037;-74
2023/08/03 08:20:59;;;;;;;4.03;0.73;;;18.70;99.90;;;;;;5054324;28;20088;-74
2023/08/03 08:23:25;;;;;;;3.05;0.65;;;18.80;99.90;;;;;;5056259;28;20040;-73
2023/08/03 08:25:51;;;;;;;3.58;0.73;;;18.90;99.90;;;;;;5056755;28;20029;-72
2023/08/03 08:28:17;;;;;;;4.70;0.55;;;19.00;99.90;;;;;;5056381;28;20475;-73
2023/08/03 08:30:44;;;;;;;3.13;0.90;;;18.70;99.90;;;;;;5056304;28;20025;-71
2023/08/03 08:33:10;;;;;;;4.57;0.75;;;18.60;99.90;;;;;;5056524;28;20408;-79
2023/08/03 08:35:36;;;;;;;5.57;0.70;;;18.50;99.90;;;;;;5054940;28;20025;-72
2023/08/03 08:38:05;;;;;;;6.30;1.13;;;18.40;99.90;;;;;;5056218;28;20021;-76
2023/08/03 08:40:38;;;;;;;6.50;0.98;;;18.40;99.90;;;;;;5056174;28;20355;-75
2023/08/03 08:43:07;;;;;;;3.90;0.77;;;18.50;99.90;;;;;;5056438;28;20515;-73
2023/08/03 08:45:34;;;;;;;3.75;0.73;;;18.50;99.90;;;;;;5056042;28;20343;-74
2023/08/03 08:48:02;;;;;;;2.22;0.73;;;18.50;99.90;;;;;;5055435;28;20041;-77
2023/08/03 08:50:28;;;;;;;2.25;0.70;;;18.60;99.90;;;;;;5055947;28;20032;-78
2023/08/03 08:52:55;;;;;;;3.13;0.60;;;18.60;99.90;;;;;;5055948;28;20025;-73
2023/08/03 08:55:23;;;;;;;1.08;0.40;;;18.50;99.90;;;;;;5055667;28;20484;-74
2023/08/03 08:57:51;;;;;;;3.80;0.60;;;18.50;99.90;;;;;;5056066;28;20055;-77
2023/08/03 09:00:19;;;;;;;5.80;0.65;;;18.50;99.90;;;;;;5055768;28;20017;-69
2023/08/03 09:02:46;;;;;;;4.82;0.55;;;18.60;99.90;;;;;;5055499;28;20020;-74
2023/08/03 09:05:20;;;;;;;1.60;0.40;;;18.80;99.90;;;;;;5054202;28;20028;-75
2023/08/03 09:07:59;;;;;;;0.73;0.35;;;18.70;99.90;;;;;;5055685;28;20013;-71
2023/08/03 09:10:31;;;;;;;2.08;0.32;;;18.60;99.90;;;;;;5056051;28;20020;-74
2023/08/03 09:12:59;;;;;;;0.68;0.28;;;18.50;99.90;;;;;;5055634;28;20469;-72
2023/08/03 09:15:41;;;;;;;2.83;0.43;;;18.60;99.90;;;;;;5055778;28;20017;-72
2023/08/03 09:18:07;;;;;;;2.63;0.60;;;18.60;99.90;;;;;;5055234;28;20029;-78
2023/08/03 09:20:34;;;;;;;2.47;0.50;;;18.90;99.90;;;;;;5055161;28;20528;-69
2023/08/03 09:23:01;;;;;;;1.90;0.45;;;19.30;99.90;;;;;;5055388;28;20412;-72
2023/08/03 09:25:30;;;;;;;2.42;0.50;;;19.20;99.90;;;;;;5055266;28;20031;-71
2023/08/03 09:27:56;;;;;;;3.78;0.50;;;19.30;99.90;;;;;;5053997;28;20021;-72
2023/08/03 09:30:24;;;;;;;7.93;0.50;;;19.40;99.90;;;;;;5055415;28;20101;-70
2023/08/03 09:32:50;;;;;;;3.10;0.40;;;19.90;99.90;;;;;;5054643;28;20021;-74
2023/08/03 09:35:18;;;;;;;6.80;1.17;;;20.10;99.90;;;;;;5055108;28;20373;-78
2023/08/03 09:37:44;;;;;;;2.13;0.57;;;20.10;99.90;;;;;;5055269;28;20021;-77
2023/08/03 09:40:10;;;;;;;2.85;0.40;;;20.10;99.90;;;;;;5055200;28;20028;-71
2023/08/03 09:42:37;;;;;;;3.75;0.65;;;19.90;99.90;;;;;;5054847;28;20560;-70
2023/08/03 09:45:05;;;;;;;1.80;0.40;;;20.10;99.90;;;;;;5054882;28;20028;-71
2023/08/03 09:47:32;;;;;;;4.25;0.55;;;19.90;99.90;;;;;;5054931;28;20036;-71
2023/08/03 09:49:57;;;;;;;2.78;0.40;;;19.80;99.90;;;;;;5054376;28;20041;-73
2023/08/03 09:52:28;;;;;;;5.05;0.77;;;19.90;99.90;;;;;;5054767;28;20055;-76
2023/08/03 09:55:10;;;;;;;;;;;20.10;99.90;;;;;;5055189;28;20394;-70
2023/08/03 09:57:47;;;;;;;4.55;0.40;;;20.20;99.90;;;;;;5053432;28;19908;-71
2023/08/03 10:00:15;;;;;;;4.88;0.50;;;20.10;99.90;;;;;;5055058;28;20075;-73
2023/08/03 10:03:03;;;;;;;1.48;0.28;;;20.20;99.90;;;;;;5054599;28;20017;-69
2023/08/03 10:05:34;;;;;;;4.88;0.63;;;20.10;99.90;;;;;;5055056;28;20024;-73
2023/08/03 10:08:09;;;;;;;3.60;0.63;;;19.90;99.90;;;;;;5055229;28;20021;-71
2023/08/03 10:10:38;;;;;;;1.25;0.30;;;20.10;99.90;;;;;;5054625;28;20047;-76
2023/08/03 10:13:04;;;;;;;5.20;0.70;;;20.10;99.90;;;;;;5054562;28;20033;-75
2023/08/03 10:15:31;;;;;;;2.70;0.57;;;20.00;99.90;;;;;;5053164;28;20116;-70
2023/08/03 10:18:02;;;;;;;6.68;0.65;;;19.90;99.90;;;;;;5054782;28;20064;-69
2023/08/03 10:20:29;;;;;;;3.47;0.55;;;19.90;99.90;;;;;;5056108;28;20021;-72
2023/08/03 10:23:12;;;;;;;1.92;0.60;;;20.30;99.90;;;;;;5054541;28;20029;-69
2023/08/03 10:25:53;;;;;;;4.88;0.45;;;20.70;99.90;;;;;;5054041;28;20085;-73
2023/08/03 10:28:20;;;;;;;6.97;0.73;;;20.80;99.90;;;;;;5054304;28;20017;-67
2023/08/03 10:31:10;;;;;;;2.97;0.47;;;20.80;99.90;;;;;;5054039;28;20078;-71
2023/08/03 10:33:51;;;;;;;3.28;0.35;;;20.80;99.90;;;;;;5054125;28;20453;-72
2023/08/03 10:38:59;;;;;;;1.63;0.40;;;20.90;99.90;;;;;;5054129;28;20106;-69
2023/08/03 10:41:27;;;;;;;4.13;0.75;;;21.10;99.90;;;;;;5054531;28;20033;-70
2023/08/03 10:44:09;;;;;;;3.15;0.40;;;20.70;99.90;;;;;;5053304;28;20020;-72
2023/08/03 10:46:48;;;;;;;1.95;0.30;;;20.70;99.90;;;;;;5053839;28;20162;-76
2023/08/03 10:49:20;;;;;;;3.30;0.43;;;20.80;99.90;;;;;;5053633;28;20465;-68
2023/08/03 10:52:16;;;;;;;1.73;0.38;;;21.00;99.90;;;;;;5054024;28;20033;-68
2023/08/03 10:54:42;;;;;;;3.08;0.57;;;20.80;99.90;;;;;;5053940;28;20117;-70
2023/08/03 10:57:09;;;;;;;4.10;0.68;;;20.70;99.90;;;;;;5053544;28;20027;-74
2023/08/03 10:59:49;;;;;;;3.80;0.60;;;20.50;99.90;;;;;;5053736;28;20103;-72
2023/08/03 11:02:29;;;;;;;2.85;0.55;;;20.40;99.90;;;;;;5053750;28;20082;-73
2023/08/03 11:04:59;;;;;;;;;;;20.50;99.90;;;;;;5054725;28;20074;-68
2023/08/03 11:07:34;;;;;;;2.40;0.45;;;20.20;99.90;;;;;;5053627;28;19911;-69
2023/08/03 11:10:05;;;;;;;3.25;0.50;;;20.20;99.90;;;;;;5053643;28;20021;-71
2023/08/03 11:12:31;;;;;;;2.08;0.80;;;20.70;99.90;;;;;;5053866;28;20021;-72
2023/08/03 11:15:01;;;;;;;2.88;0.38;;;21.10;99.90;;;;;;5053851;28;20098;-72
2023/08/03 11:17:29;;;;;;;2.05;0.35;;;21.30;99.90;;;;;;5054139;28;20461;-73
2023/08/03 11:19:55;;;;;;;1.00;0.30;;;21.10;99.90;;;;;;5053757;28;20093;-74
2023/08/03 11:22:23;;;;;;;3.80;0.50;;;20.80;99.90;;;;;;5053191;28;20029;-69
2023/08/03 11:24:55;;;;;;;2.55;0.60;;;20.40;99.90;;;;;;5054009;28;20044;-75
2023/08/03 11:27:22;;;;;;;1.00;0.40;;;20.40;99.90;;;;;;5053357;28;20031;-73
2023/08/03 11:29:48;;;;;;;3.38;0.30;;;20.30;99.90;;;;;;5053411;28;20022;-74
2023/08/03 11:32:30;;;;;;;2.88;0.30;;;20.70;99.90;;;;;;5053045;28;20039;-73
2023/08/03 11:35:07;;;;;;;2.30;0.52;;;21.60;99.90;;;;;;5053411;28;20028;-74
2023/08/03 11:37:37;;;;;;;3.20;0.55;;;21.30;99.90;;;;;;5053351;28;20107;-70
2023/08/03 11:40:08;;;;;;;0.90;0.20;;;21.50;99.90;;;;;;5053553;28;20017;-72
2023/08/03 11:42:37;;;;;;;1.00;0.20;;;21.50;99.90;;;;;;5052889;28;20500;-72
2023/08/03 11:45:03;;;;;;;2.38;0.20;;;21.50;99.90;;;;;;5053218;28;20027;-71
2023/08/03 11:47:43;;;;;;;4.53;0.55;;;21.10;99.90;;;;;;5052967;28;20492;-71
2023/08/03 11:50:09;;;;;;;2.33;0.55;;;20.80;99.90;;;;;;5052935;28;20056;-72
2023/08/03 11:52:34;;;;;;;1.90;0.40;;;20.80;99.90;;;;;;5052827;28;20025;-68
2023/08/03 11:55:00;;;;;;;6.13;0.52;;;20.40;99.90;;;;;;5053196;28;20031;-78
2023/08/03 12:00:14;;;;;;;2.40;0.30;;;20.60;99.90;;;;;;5057065;28;20037;-77
2023/08/03 12:02:44;;;;;;;2.40;0.70;;;20.40;99.90;;;;;;5056986;28;20025;-71
2023/08/03 12:05:10;;;;;;;2.72;0.40;;;20.30;99.90;;;;;;5056941;28;20112;-71
2023/08/03 12:07:36;;;;;;;2.35;0.45;;;20.30;99.90;;;;;;5055858;28;20112;-77
2023/08/03 12:10:12;;;;;;;0.93;0.28;;;20.70;99.90;;;;;;5056775;28;20398;-82
2023/08/03 12:12:43;;;;;;;3.92;0.40;;;20.80;99.90;;;;;;5055599;28;20441;-76
2023/08/03 12:15:09;;;;;;;;;;;21.30;99.90;;;;;;5057437;28;20098;-73
2023/08/03 12:17:35;;;;;;;2.13;0.40;;;21.40;99.90;;;;;;5055308;28;19900;-70
2023/08/03 12:20:01;;;;;;;2.50;0.35;;;21.00;99.90;;;;;;5056783;28;20366;-71
2023/08/03 12:22:27;;;;;;;4.55;0.50;;;20.80;99.90;;;;;;5056657;28;20448;-79
2023/08/03 12:24:52;;;;;;;3.65;0.40;;;21.00;99.90;;;;;;5056632;28;20020;-77
2023/08/03 12:27:18;;;;;;;3.88;0.40;;;21.10;99.90;;;;;;5056579;28;20027;-78
2023/08/03 12:29:44;;;;;;;2.78;0.55;;;20.80;99.90;;;;;;5055200;28;20020;-72
2023/08/03 12:32:11;;;;;;;2.88;0.47;;;21.00;99.90;;;;;;5056635;28;20028;-77
2023/08/03 12:34:37;;;;;;;2.83;0.40;;;21.50;99.90;;;;;;5055160;28;20029;-73
2023/08/03 12:37:03;;;;;;;2.65;0.52;;;21.50;99.90;;;;;;5056324;28;20066;-69
2023/08/03 12:39:29;;;;;;;3.17;0.30;;;21.10;99.90;;;;;;5056416;28;20021;-79
2023/08/03 12:41:55;;;;;;;1.70;0.43;;;21.10;99.90;;;;;;5056055;28;20028;-76
2023/08/03 12:44:21;;;;;;;3.05;0.50;;;21.40;99.90;;;;;;5056631;28;20040;-69
2023/08/03 12:46:46;;;;;;;5.93;0.50;;;21.20;99.90;;;;;;5056173;28;20338;-72
2023/08/03 12:49:12;;;;;;;1.58;0.30;;;21.40;99.90;;;;;;5055521;28;20037;-74
2023/08/03 12:51:38;;;;;;;2.95;0.50;;;21.20;99.90;;;;;;5056214;28;20111;-79
2023/08/03 12:54:05;;;;;;;1.92;0.70;;;21.00;99.90;;;;;;5056016;28;20188;-75